Time;durP1;ratioP1;P1;durP2;ratioP2;P2;SDS_P1;SDS_P2;PMS_P1;PMS_P2;Temp;Humidity;BMP_temperature;BMP_pressure;BME280_temperature;BME280_humidity;BME280_pressure;Samples;Min_cycle;Max_cycle;Signal;HPM_P1;HPM_P2
2023/07/12 00:00:31;;;;;;;;;;;;;;;19.05;100.00;99664.50;4994089;28;1915;-67
2023/07/12 00:02:58;;;;;;;;;;;;;;;19.06;100.00;99666.09;4994122;28;930;-67
2023/07/12 00:05:27;;;;;;;;;;;;;;;19.10;100.00;99667.50;4994403;28;815;-67
2023/07/12 00:07:54;;;;;;;;;;;;;;;19.10;100.00;99664.69;4994049;28;897;-66
2023/07/12 00:10:23;;;;;;;;;;;;;;;19.16;100.00;99667.63;4994030;28;795;-67
2023/07/12 00:12:50;;;;;;;;;;;;;;;19.22;100.00;99668.59;4994020;28;799;-66
2023/07/12 00:15:22;;;;;;;;;;;;;;;19.31;100.00;99665.00;4994096;28;835;-67
2023/07/12 00:17:53;;;;;;;;;;;;;;;19.36;100.00;99665.19;4993938;28;819;-66
2023/07/12 00:20:22;;;;;;;;;;;;;;;19.44;100.00;99662.84;4993662;28;1960;-67
2023/07/12 00:22:51;;;;;;;;;;;;;;;19.43;100.00;99661.28;4993793;28;1003;-67
2023/07/12 00:25:19;;;;;;;;;;;;;;;19.45;100.00;99669.22;4993603;28;909;-67
2023/07/12 00:27:47;;;;;;;;;;;;;;;19.50;100.00;99663.78;4993619;28;830;-67
2023/07/12 00:30:16;;;;;;;;;;;;;;;19.59;100.00;99674.22;4993498;28;803;-67
2023/07/12 00:32:43;;;;;;;;;;;;;;;19.63;100.00;99669.22;4993515;28;827;-67
2023/07/12 00:35:14;;;;;;;;;;;;;;;19.62;100.00;99670.47;4993744;28;1253;-66
2023/07/12 00:37:41;;;;;;;;;;;;;;;19.63;100.00;99674.84;4993417;28;914;-67
2023/07/12 00:40:38;;;;;;;;;;;;;;;19.65;100.00;99672.34;4993403;28;1894;-67
2023/07/12 00:43:19;;;;;;;;;;;;;;;19.75;100.00;99670.34;4933272;29;1232;-67
2023/07/12 00:45:48;;;;;;;;;;;;;;;19.81;100.00;99674.06;4933307;29;980;-66
2023/07/12 00:48:16;;;;;;;;;;;;;;;19.82;100.00;99686.81;4932944;29;1506;-67
2023/07/12 00:50:43;;;;;;;;;;;;;;;19.97;100.00;99690.56;4933339;29;847;-66
2023/07/12 00:53:15;;;;;;;;;;;;;;;20.14;100.00;99688.19;4933435;29;922;-67
2023/07/12 00:55:54;;;;;;;;;;;;;;;20.28;100.00;99686.75;4933190;29;875;-67
2023/07/12 00:58:23;;;;;;;;;;;;;;;20.30;100.00;99677.84;4933248;29;887;-67
2023/07/12 01:00:51;;;;;;;;;;;;;;;20.28;100.00;99683.94;4932959;29;1918;-67
2023/07/12 01:03:18;;;;;;;;;;;;;;;20.29;100.00;99690.31;4933116;29;909;-67
2023/07/12 01:05:45;;;;;;;;;;;;;;;20.30;100.00;99689.84;4933096;29;962;-67
2023/07/12 01:08:13;;;;;;;;;;;;;;;20.39;100.00;99683.44;4933007;29;974;-67
2023/07/12 01:10:40;;;;;;;;;;;;;;;20.62;100.00;99681.19;4933013;29;863;-67
2023/07/12 01:13:08;;;;;;;;;;;;;;;20.77;100.00;99680.03;4933012;29;1045;-67
2023/07/12 01:15:35;;;;;;;;;;;;;;;20.85;100.00;99677.66;4932973;29;856;-67
2023/07/12 01:18:03;;;;;;;;;;;;;;;21.06;100.00;99673.00;4932718;29;1444;-67
2023/07/12 01:20:39;;;;;;;;;;;;;;;21.23;100.00;99678.19;4989370;28;1886;-67
2023/07/12 01:23:06;;;;;;;;;;;;;;;21.30;100.00;99672.97;4992880;28;1321;-67
2023/07/12 01:25:36;;;;;;;;;;;;;;;21.19;100.00;99681.97;4992815;28;928;-67
2023/07/12 01:28:04;;;;;;;;;;;;;;;21.08;100.00;99678.91;4992552;28;847;-68
2023/07/12 01:30:31;;;;;;;;;;;;;;;20.88;100.00;99684.34;4992688;28;835;-67
2023/07/12 01:32:58;;;;;;;;;;;;;;;20.58;100.00;99684.16;4992606;28;912;-67
2023/07/12 01:35:23;;;;;;;;;;;;;;;20.17;100.00;99689.28;4992628;28;839;-68
2023/07/12 01:37:50;;;;;;;;;;;;;;;19.87;100.00;99693.84;4992747;28;862;-67
2023/07/12 01:40:17;;;;;;;;;;;;;;;19.65;100.00;99693.97;4992584;28;1969;-67
2023/07/12 01:42:45;;;;;;;;;;;;;;;19.50;100.00;99693.81;4992716;28;850;-67
2023/07/12 01:45:12;;;;;;;;;;;;;;;19.37;100.00;99697.56;4992443;28;850;-67
2023/07/12 01:47:39;;;;;;;;;;;;;;;19.28;100.00;99691.94;4992966;28;918;-67
2023/07/12 01:50:06;;;;;;;;;;;;;;;19.25;100.00;99690.09;4993538;28;1289;-67
2023/07/12 01:52:33;;;;;;;;;;;;;;;19.31;100.00;99687.41;4996498;28;838;-67
2023/07/12 01:55:01;;;;;;;;;;;;;;;19.40;100.00;99693.06;4996434;28;874;-67
2023/07/12 01:57:28;;;;;;;;;;;;;;;19.46;100.00;99696.00;4996474;28;815;-67
2023/07/12 01:59:55;;;;;;;;;;;;;;;19.51;100.00;99695.41;4996172;28;1914;-67
2023/07/12 02:02:22;;;;;;;;;;;;;;;19.87;100.00;99694.63;4996320;28;913;-67
2023/07/12 02:04:49;;;;;;;;;;;;;;;20.22;100.00;99688.63;4996277;28;893;-67
2023/07/12 02:07:16;;;;;;;;;;;;;;;20.68;100.00;99690.53;4996501;28;830;-68
2023/07/12 02:10:03;;;;;;;;;;;;;;;20.79;100.00;99690.78;4996192;28;855;-68
2023/07/12 02:12:30;;;;;;;;;;;;;;;20.79;100.00;99702.03;4996082;28;1297;-67
2023/07/12 02:14:57;;;;;;;;;;;;;;;20.75;100.00;99707.03;4996124;28;867;-67
2023/07/12 02:17:24;;;;;;;;;;;;;;;20.73;100.00;99701.09;4996147;28;831;-67
2023/07/12 02:19:51;;;;;;;;;;;;;;;20.80;100.00;99703.56;4996073;28;1975;-67
2023/07/12 02:22:18;;;;;;;;;;;;;;;20.90;100.00;99709.91;4996232;28;873;-67
2023/07/12 02:24:45;;;;;;;;;;;;;;;21.03;100.00;99712.50;4995945;28;843;-67
2023/07/12 02:27:12;;;;;;;;;;;;;;;21.16;100.00;99721.47;4995866;28;899;-67
2023/07/12 02:29:39;;;;;;;;;;;;;;;21.28;100.00;99728.91;4995795;28;878;-67
2023/07/12 02:32:06;;;;;;;;;;;;;;;21.24;100.00;99722.69;4995994;28;875;-67
2023/07/12 02:34:34;;;;;;;;;;;;;;;21.25;100.00;99724.25;4995758;28;1028;-67
2023/07/12 02:37:01;;;;;;;;;;;;;;;21.30;100.00;99720.78;4995994;28;846;-67
2023/07/12 02:39:28;;;;;;;;;;;;;;;21.51;100.00;99720.97;4995546;28;1918;-67
2023/07/12 02:41:55;;;;;;;;;;;;;;;21.64;100.00;99729.94;4994340;28;1215;-67
2023/07/12 02:44:23;;;;;;;;;;;;;;;21.75;100.00;99724.50;4995636;28;827;-68
2023/07/12 02:46:50;;;;;;;;;;;;;;;21.74;100.00;99728.59;4995803;28;874;-68
2023/07/12 02:49:17;;;;;;;;;;;;;;;21.44;100.00;99730.53;4995303;28;1276;-67
2023/07/12 02:51:44;;;;;;;;;;;;;;;20.87;100.00;99738.94;4995546;28;870;-68
2023/07/12 02:54:11;;;;;;;;;;;;;;;20.33;100.00;99747.88;4995416;28;846;-67
2023/07/12 02:56:38;;;;;;;;;;;;;;;19.98;100.00;99745.41;4995510;28;827;-67
2023/07/12 02:59:05;;;;;;;;;;;;;;;19.87;100.00;99747.13;4995275;28;838;-67
2023/07/12 03:01:33;;;;;;;;;;;;;;;19.83;100.00;99743.72;4993904;28;1915;-67
2023/07/12 03:04:00;;;;;;;;;;;;;;;19.81;100.00;99754.63;4995307;28;894;-67
2023/07/12 03:06:26;;;;;;;;;;;;;;;19.97;100.00;99748.66;4995106;28;803;-67
2023/07/12 03:08:52;;;;;;;;;;;;;;;20.07;100.00;99761.44;4995163;28;804;-67
2023/07/12 03:11:20;;;;;;;;;;;;;;;20.40;100.00;99766.41;4995222;28;819;-67
2023/07/12 03:13:49;;;;;;;;;;;;;;;20.61;100.00;99759.00;4995001;28;977;-67
2023/07/12 03:16:16;;;;;;;;;;;;;;;20.72;100.00;99761.34;4995227;28;843;-67
2023/07/12 03:18:44;;;;;;;;;;;;;;;20.84;100.00;99753.94;4994872;28;870;-67
2023/07/12 03:21:11;;;;;;;;;;;;;;;21.06;100.00;99748.88;4994835;28;1918;-67
2023/07/12 03:23:38;;;;;;;;;;;;;;;21.44;100.00;99753.03;4994803;28;827;-68
2023/07/12 03:26:06;;;;;;;;;;;;;;;21.80;100.00;99743.53;4994846;28;1038;-68
2023/07/12 03:28:33;;;;;;;;;;;;;;;22.13;100.00;99744.66;4994679;28;851;-68
2023/07/12 03:31:09;;;;;;;;;;;;;;;22.33;100.00;99753.22;4995031;28;847;-68
2023/07/12 03:33:36;;;;;;;;;;;;;;;22.50;100.00;99759.16;4993336;28;1197;-68
2023/07/12 03:36:04;;;;;;;;;;;;;;;22.68;100.00;99755.38;4993442;28;853;-67
2023/07/12 03:38:32;;;;;;;;;;;;;;;22.84;100.00;99751.25;4993237;28;1296;-68
2023/07/12 03:41:01;;;;;;;;;;;;;;;23.00;100.00;99747.13;4994422;28;1906;-67
2023/07/12 03:43:28;;;;;;;;;;;;;;;23.14;100.00;99748.38;4994980;28;824;-67
2023/07/12 03:45:55;;;;;;;;;;;;;;;23.28;100.00;99756.03;4994991;28;904;-67
2023/07/12 03:48:23;;;;;;;;;;;;;;;23.41;100.00;99761.31;4994350;28;1267;-68
2023/07/12 03:50:52;;;;;;;;;;;;;;;23.52;100.00;99769.16;4993271;28;1185;-67
2023/07/12 03:53:19;;;;;;;;;;;;;;;23.63;100.00;99763.66;4994291;28;799;-68
2023/07/12 03:55:47;;;;;;;;;;;;;;;23.74;100.00;99769.41;4994271;28;887;-67
2023/07/12 03:58:17;;;;;;;;;;;;;;;23.84;100.00;99773.66;4992997;28;808;-68
2023/07/12 04:00:46;;;;;;;;;;;;;;;23.94;100.00;99774.31;4994123;28;1906;-68
2023/07/12 04:03:12;;;;;;;;;;;;;;;24.08;100.00;99775.47;4994097;28;824;-67
2023/07/12 04:05:40;;;;;;;;;;;;;;;24.18;100.00;99778.94;4994044;28;823;-68
2023/07/12 04:08:07;;;;;;;;;;;;;;;24.24;100.00;99776.94;4994186;28;823;-68
2023/07/12 04:10:34;;;;;;;;;;;;;;;24.41;100.00;99791.19;4993913;28;968;-68
2023/07/12 04:13:02;;;;;;;;;;;;;;;24.53;100.00;99801.34;4993621;28;874;-69
2023/07/12 04:15:29;;;;;;;;;;;;;;;24.40;100.00;99803.78;4993920;28;870;-68
2023/07/12 04:17:56;;;;;;;;;;;;;;;24.16;100.00;99804.81;4993898;28;820;-68
2023/07/12 04:20:21;;;;;;;;;;;;;;;23.95;100.00;99797.66;4993831;28;1886;-69
2023/07/12 04:22:52;;;;;;;;;;;;;;;23.79;100.00;99810.28;4993938;28;903;-68
2023/07/12 04:25:20;;;;;;;;;;;;;;;23.75;100.00;99807.66;4993824;28;820;-68
2023/07/12 04:27:47;;;;;;;;;;;;;;;23.75;100.00;99818.19;4993482;28;889;-68
2023/07/12 04:30:15;;;;;;;;;;;;;;;23.81;100.00;99819.81;4993639;28;858;-68
2023/07/12 04:32:42;;;;;;;;;;;;;;;23.92;100.00;99818.38;4993674;28;853;-68
2023/07/12 04:35:10;;;;;;;;;;;;;;;24.06;100.00;99817.53;4993542;28;811;-68
2023/07/12 04:37:37;;;;;;;;;;;;;;;24.18;100.00;99824.88;4993619;28;861;-68
2023/07/12 04:40:04;;;;;;;;;;;;;;;24.29;100.00;99824.22;4993401;28;1878;-68
2023/07/12 04:42:31;;;;;;;;;;;;;;;24.41;100.00;99830.75;4993405;28;807;-68
2023/07/12 04:44:58;;;;;;;;;;;;;;;24.55;100.00;99821.41;4993357;28;882;-68
2023/07/12 04:47:26;;;;;;;;;;;;;;;24.74;100.00;99830.31;4993854;28;1004;-69
2023/07/12 04:49:53;;;;;;;;;;;;;;;24.93;100.00;99833.56;4991844;28;1635;-68
2023/07/12 04:52:19;;;;;;;;;;;;;;;25.08;100.00;99841.13;4993530;28;883;-68
2023/07/12 04:54:47;;;;;;;;;;;;;;;25.21;100.00;99850.00;4993253;28;803;-69
2023/07/12 04:57:14;;;;;;;;;;;;;;;25.27;100.00;99840.28;4993202;28;868;-69
2023/07/12 04:59:41;;;;;;;;;;;;;;;25.24;100.00;99837.66;4993002;28;1973;-69
2023/07/12 05:02:08;;;;;;;;;;;;;;;25.25;100.00;99844.88;4993177;28;890;-69
2023/07/12 05:04:36;;;;;;;;;;;;;;;25.32;100.00;99850.06;4992915;28;859;-69
2023/07/12 05:07:03;;;;;;;;;;;;;;;25.42;100.00;99845.00;4993200;28;850;-69
2023/07/12 05:09:31;;;;;;;;;;;;;;;25.57;100.00;99844.84;4993014;28;827;-69
2023/07/12 05:11:58;;;;;;;;;;;;;;;25.80;100.00;99848.56;4993344;28;823;-69
2023/07/12 05:14:24;;;;;;;;;;;;;;;26.05;100.00;99842.00;4992897;28;874;-70
2023/07/12 05:16:52;;;;;;;;;;;;;;;26.34;100.00;99850.56;4992975;28;936;-69
2023/07/12 05:19:19;;;;;;;;;;;;;;;26.55;100.00;99845.47;4991623;28;881;-70
2023/07/12 05:21:46;;;;;;;;;;;;;;;26.72;100.00;99854.03;4992749;28;1957;-69
2023/07/12 05:24:13;;;;;;;;;;;;;;;26.95;100.00;99854.78;4992511;28;910;-69
2023/07/12 05:26:41;;;;;;;;;;;;;;;27.07;100.00;99857.09;4992623;28;914;-70
2023/07/12 05:29:12;;;;;;;;;;;;;;;27.14;100.00;99855.84;4992799;28;846;-70
2023/07/12 05:31:39;;;;;;;;;;;;;;;27.18;100.00;99853.50;4993013;28;812;-70
2023/07/12 05:34:06;;;;;;;;;;;;;;;27.39;100.00;99856.09;4991532;28;856;-69
2023/07/12 05:36:33;;;;;;;;;;;;;;;27.71;100.00;99870.72;4992727;28;883;-70
2023/07/12 05:38:59;;;;;;;;;;;;;;;27.89;100.00;99866.56;4992814;28;831;-70
2023/07/12 05:41:26;;;;;;;;;;;;;;;28.03;100.00;99873.22;4991380;28;1938;-69
2023/07/12 05:43:53;;;;;;;;;;;;;;;28.11;100.00;99865.69;4992747;28;898;-69
2023/07/12 05:46:21;;;;;;;;;;;;;;;28.28;100.00;99869.22;4992999;28;1012;-69
2023/07/12 05:48:48;;;;;;;;;;;;;;;28.36;100.00;99874.34;4992385;28;1214;-69
2023/07/12 05:51:15;;;;;;;;;;;;;;;28.61;100.00;99872.41;4992724;28;878;-70
2023/07/12 05:53:43;;;;;;;;;;;;;;;28.74;100.00;99878.25;4992485;28;811;-69
2023/07/12 05:56:10;;;;;;;;;;;;;;;28.84;100.00;99878.72;4992693;28;862;-69
2023/07/12 05:58:38;;;;;;;;;;;;;;;28.98;100.00;99888.97;4991124;28;960;-69
2023/07/12 06:01:05;;;;;;;;;;;;;;;29.30;100.00;99888.47;4992341;28;1922;-69
2023/07/12 06:03:33;;;;;;;;;;;;;;;29.73;100.00;99889.88;4992297;28;865;-69
2023/07/12 06:06:00;;;;;;;;;;;;;;;30.06;100.00;99892.31;4992416;28;803;-68
2023/07/12 06:11:28;;;;;;;;;;;;;;;30.43;100.00;99901.47;4985338;28;931;-69
2023/07/12 06:13:55;;;;;;;;;;;;;;;30.41;100.00;99904.88;4972936;28;804;-69
2023/07/12 06:16:22;;;;;;;;;;;;;;;30.46;100.00;99901.16;4972991;28;858;-69
2023/07/12 06:18:49;;;;;;;;;;;;;;;30.72;100.00;99905.44;4972755;28;866;-69
2023/07/12 06:21:15;;;;;;;;;;;;;;;31.04;100.00;99911.19;4972808;28;1894;-69
2023/07/12 06:23:42;;;;;;;;;;;;;;;31.39;100.00;99911.41;4972916;28;878;-69
2023/07/12 06:26:09;;;;;;;;;;;;;;;31.62;99.38;99906.09;4972694;28;842;-68
2023/07/12 06:28:36;;;;;;;;;;;;;;;32.07;98.13;99906.00;4972852;28;842;-70
2023/07/12 06:31:05;;;;;;;;;;;;;;;32.43;99.39;99907.59;4972738;28;839;-69
2023/07/12 06:33:33;;;;;;;;;;;;;;;32.99;100.00;99905.53;4972729;28;897;-69
2023/07/12 06:36:00;;;;;;;;;;;;;;;33.54;94.06;99897.66;4973493;28;1260;-68
2023/07/12 06:38:27;;;;;;;;;;;;;;;33.67;94.35;99904.63;4976358;28;1234;-70
2023/07/12 09:47:54;;;;;;;;;;;;;;;34.86;40.44;99945.75;5202755;23;1642;-58
2023/07/12 09:50:35;;;;;;;;;;;;;;;34.64;40.34;99944.34;4973158;28;871;-56
2023/07/12 09:53:10;;;;;;;;;;;;;;;34.73;40.72;99943.81;4973085;28;845;-56
2023/07/12 09:55:58;;;;;;;;;;;;;;;34.96;40.59;99940.22;4973089;28;924;-56
2023/07/12 09:58:31;;;;;;;;;;;;;;;34.89;40.13;99932.38;4972993;28;870;-56
2023/07/12 10:01:06;;;;;;;;;;;;;;;34.66;39.93;99953.16;4973447;28;1968;-56
2023/07/12 10:03:41;;;;;;;;;;;;;;;34.63;40.54;99931.34;4973074;28;842;-56
2023/07/12 10:06:20;;;;;;;;;;;;;;;34.68;39.87;99938.25;4972960;28;819;-57
2023/07/12 10:08:57;;;;;;;;;;;;;;;34.25;40.70;99939.78;4971684;28;1291;-57
2023/07/12 10:11:27;;;;;;;;;;;;;;;34.34;40.98;99936.38;4974558;28;811;-57
2023/07/12 10:13:57;;;;;;;;;;;;;;;34.55;40.57;99936.28;4977144;28;862;-57
2023/07/12 10:16:31;;;;;;;;;;;;;;;34.62;40.49;99924.03;4976651;28;811;-57
2023/07/12 10:19:02;;;;;;;;;;;;;;;34.79;39.35;99932.16;4976634;28;883;-57
2023/07/12 10:21:29;;;;;;;;;;;;;;;34.68;39.79;99936.16;4976561;28;1895;-57
2023/07/12 10:23:59;;;;;;;;;;;;;;;34.72;39.50;99925.06;4976616;28;867;-57
2023/07/12 10:26:27;;;;;;;;;;;;;;;34.74;39.58;99924.50;4976431;28;871;-57
2023/07/12 10:29:03;;;;;;;;;;;;;;;34.89;39.10;99923.75;4976460;28;811;-57
2023/07/12 10:31:33;;;;;;;;;;;;;;;34.65;38.99;99928.66;4976504;28;828;-57
2023/07/12 10:34:07;;;;;;;;;;;;;;;34.59;39.53;99928.06;4976314;28;783;-57
2023/07/12 10:36:35;;;;;;;;;;;;;;;34.91;39.22;99918.97;4976418;28;870;-57
2023/07/12 10:39:04;;;;;;;;;;;;;;;35.25;38.95;99917.09;4976330;28;822;-57
2023/07/12 10:41:39;;;;;;;;;;;;;;;35.36;38.45;99911.75;4984484;28;1882;-57
2023/07/12 10:44:12;;;;;;;;;;;;;;;35.15;38.23;99920.56;4995718;28;898;-57
2023/07/12 10:46:42;;;;;;;;;;;;;;;35.12;38.07;99913.06;4995428;28;991;-57
2023/07/12 10:49:17;;;;;;;;;;;;;;;35.38;38.33;99914.81;4995506;28;1483;-57
2023/07/12 10:52:03;;;;;;;;;;;;;;;35.66;38.13;99915.22;4995554;28;854;-57
2023/07/12 10:54:30;;;;;;;;;;;;;;;36.13;36.68;99911.66;4995134;28;1039;-57
2023/07/12 10:57:17;;;;;;;;;;;;;;;36.13;37.09;99900.16;4995608;28;889;-58
2023/07/12 10:59:45;;;;;;;;;;;;;;;36.08;37.23;99888.81;4985036;28;1910;-57
2023/07/12 11:02:25;;;;;;;;;;;;;;;36.32;36.68;99885.31;4995533;28;795;-58
2023/07/12 11:04:53;;;;;;;;;;;;;;;36.27;36.22;99880.53;4995238;28;889;-58
2023/07/12 11:07:20;;;;;;;;;;;;;;;36.42;37.00;99873.94;4995382;28;886;-58
2023/07/12 11:09:47;;;;;;;;;;;;;;;36.62;36.53;99875.00;4995167;28;783;-58
2023/07/12 11:12:33;;;;;;;;;;;;;;;36.69;36.22;99873.44;4993843;28;934;-58
2023/07/12 11:15:22;;;;;;;;;;;;;;;36.49;35.48;99863.72;4994915;28;1084;-58
2023/07/12 11:18:01;;;;;;;;;;;;;;;36.15;36.06;99859.31;4994878;28;1135;-58
2023/07/12 11:20:30;;;;;;;;;;;;;;;36.37;36.71;99849.03;4995070;28;1943;-58
2023/07/12 11:23:07;;;;;;;;;;;;;;;36.81;35.76;99845.72;4993941;28;842;-58
2023/07/12 11:25:49;;;;;;;;;;;;;;;36.63;34.86;99856.38;4994939;28;840;-57
2023/07/12 11:28:22;;;;;;;;;;;;;;;36.57;34.92;99841.41;4994867;28;866;-57
2023/07/12 11:31:04;;;;;;;;;;;;;;;36.54;35.49;99842.59;4994768;28;851;-57
2023/07/12 11:33:35;;;;;;;;;;;;;;;36.77;35.36;99845.34;4994865;28;798;-58
2023/07/12 11:36:08;;;;;;;;;;;;;;;37.02;34.51;99847.44;4994597;28;842;-58
2023/07/12 11:38:37;;;;;;;;;;;;;;;37.16;34.31;99852.34;4995271;28;866;-58
2023/07/12 11:41:06;;;;;;;;;;;;;;;37.51;34.24;99846.66;4994728;28;1910;-58
2023/07/12 11:43:34;;;;;;;;;;;;;;;37.65;33.64;99849.22;4994852;28;814;-58
2023/07/12 11:46:03;;;;;;;;;;;;;;;37.95;33.06;99848.84;4993310;28;1184;-58
2023/07/12 11:48:32;;;;;;;;;;;;;;;38.28;32.52;99842.91;4994306;28;1376;-57
2023/07/12 11:51:03;;;;;;;;;;;;;;;38.48;32.51;99840.88;4994333;28;894;-58
2023/07/12 11:53:30;;;;;;;;;;;;;;;38.80;32.33;99836.94;4994490;28;826;-58
2023/07/12 11:55:57;;;;;;;;;;;;;;;39.11;31.27;99836.44;4994281;28;975;-57
2023/07/12 11:58:27;;;;;;;;;;;;;;;39.56;31.16;99842.81;4994256;28;858;-57
2023/07/12 12:00:55;;;;;;;;;;;;;;;39.79;30.81;99832.91;4994283;28;1910;-57
2023/07/12 12:03:23;;;;;;;;;;;;;;;40.09;30.39;99824.97;4994180;28;787;-58
2023/07/12 12:05:51;;;;;;;;;;;;;;;40.23;29.77;99828.94;4994172;28;957;-57
2023/07/12 12:08:21;;;;;;;;;;;;;;;40.05;29.76;99839.91;4994090;28;799;-58
2023/07/12 12:10:49;;;;;;;;;;;;;;;39.95;29.79;99837.03;4994257;28;885;-58
2023/07/12 12:13:16;;;;;;;;;;;;;;;40.46;29.14;99833.44;4994459;28;857;-57
2023/07/12 12:15:58;;;;;;;;;;;;;;;40.92;28.89;99829.47;4994408;28;850;-59
2023/07/12 12:18:25;;;;;;;;;;;;;;;40.48;28.76;99825.69;4993849;28;866;-57
2023/07/12 12:20:55;;;;;;;;;;;;;;;40.38;28.69;99831.50;4993780;28;1952;-58
2023/07/12 12:23:26;;;;;;;;;;;;;;;40.52;28.58;99831.78;4993859;28;822;-58
2023/07/12 12:26:13;;;;;;;;;;;;;;;40.65;28.66;99816.03;4993798;28;882;-58
2023/07/12 12:28:42;;;;;;;;;;;;;;;40.51;28.22;99820.78;4994030;28;799;-58
2023/07/12 12:31:11;;;;;;;;;;;;;;;40.33;28.77;99820.22;4993694;28;806;-57
2023/07/12 12:33:44;;;;;;;;;;;;;;;40.42;28.84;99823.09;4993437;28;799;-58
2023/07/12 12:36:26;;;;;;;;;;;;;;;40.72;28.52;99808.56;4993505;28;895;-58
2023/07/12 12:39:00;;;;;;;;;;;;;;;41.27;27.94;99818.16;4993495;28;875;-58
2023/07/12 12:41:38;;;;;;;;;;;;;;;41.42;27.39;99823.53;4993444;28;1890;-58
2023/07/12 12:44:16;;;;;;;;;;;;;;;41.01;27.91;99817.06;4993326;28;921;-58
2023/07/12 12:46:42;;;;;;;;;;;;;;;41.20;27.75;99814.09;4993805;28;993;-58
2023/07/12 12:49:27;;;;;;;;;;;;;;;41.37;27.67;99809.38;5003291;28;1320;-58
2023/07/12 12:51:56;;;;;;;;;;;;;;;41.16;28.26;99810.91;5012866;28;827;-58
2023/07/12 12:54:23;;;;;;;;;;;;;;;40.97;28.53;99813.88;5012795;28;814;-57
2023/07/12 12:56:51;;;;;;;;;;;;;;;40.93;28.82;99805.69;5012717;28;851;-58
2023/07/12 12:59:18;;;;;;;;;;;;;;;41.11;28.77;99809.06;5012705;28;834;-58
2023/07/12 13:01:47;;;;;;;;;;;;;;;40.62;28.70;99802.75;5012743;28;1907;-58
2023/07/12 13:04:14;;;;;;;;;;;;;;;40.49;28.88;99797.50;5012701;28;854;-58
2023/07/12 13:06:41;;;;;;;;;;;;;;;40.53;28.50;99798.53;5012519;28;930;-58
2023/07/12 13:09:29;;;;;;;;;;;;;;;40.49;28.80;99811.97;5012596;28;815;-58
2023/07/12 13:11:56;;;;;;;;;;;;;;;40.69;28.82;99793.13;5012521;28;866;-57
2023/07/12 13:14:23;;;;;;;;;;;;;;;40.63;28.86;99810.09;5012513;28;829;-58
2023/07/12 13:16:50;;;;;;;;;;;;;;;40.27;29.03;99814.00;5012495;28;823;-58
2023/07/12 13:19:17;;;;;;;;;;;;;;;39.60;29.77;99811.31;5012417;28;891;-58
2023/07/12 13:21:44;;;;;;;;;;;;;;;39.37;30.85;99805.19;5012328;28;1963;-58
2023/07/12 13:24:09;;;;;;;;;;;;;;;39.06;31.63;99802.84;5012377;28;818;-58
2023/07/12 13:26:37;;;;;;;;;;;;;;;38.65;31.50;99805.44;5012401;28;909;-58
2023/07/12 13:29:15;;;;;;;;;;;;;;;38.44;31.88;99799.38;5012244;28;883;-57
2023/07/12 13:31:41;;;;;;;;;;;;;;;38.53;32.21;99796.56;5012319;28;802;-58
2023/07/12 13:34:08;;;;;;;;;;;;;;;38.90;31.89;99792.88;5012541;28;847;-58
2023/07/12 13:36:35;;;;;;;;;;;;;;;39.34;31.18;99798.47;5012237;28;941;-58
2023/07/12 13:39:12;;;;;;;;;;;;;;;39.10;31.39;99802.41;5012213;28;901;-58
2023/07/12 13:41:40;;;;;;;;;;;;;;;38.95;31.48;99798.41;5011961;28;1882;-57
2023/07/12 13:44:09;;;;;;;;;;;;;;;38.85;31.71;99811.28;5012046;28;823;-58
2023/07/12 13:46:36;;;;;;;;;;;;;;;38.53;32.51;99811.00;5011561;28;1009;-58
2023/07/12 13:49:06;;;;;;;;;;;;;;;38.40;32.42;99812.13;5011872;28;1447;-57
2023/07/12 13:51:33;;;;;;;;;;;;;;;38.32;32.99;99813.59;5012099;28;826;-58
2023/07/12 13:54:00;;;;;;;;;;;;;;;38.01;32.54;99805.34;5011984;28;893;-57
2023/07/12 13:56:27;;;;;;;;;;;;;;;38.09;32.89;99803.16;5012024;28;803;-57
2023/07/12 13:58:54;;;;;;;;;;;;;;;38.39;32.35;99806.97;5012172;28;889;-58
2023/07/12 14:01:23;;;;;;;;;;;;;;;38.08;32.42;99801.59;5011872;28;1971;-58
2023/07/12 14:03:48;;;;;;;;;;;;;;;38.11;32.73;99803.31;5011808;28;1273;-57
2023/07/12 14:06:16;;;;;;;;;;;;;;;37.99;32.29;99794.38;5012023;28;847;-58
2023/07/12 14:08:43;;;;;;;;;;;;;;;38.00;32.50;99798.03;5011880;28;831;-58
2023/07/12 14:11:28;;;;;;;;;;;;;;;37.98;32.86;99797.84;5012172;28;910;-57
2023/07/12 14:13:55;;;;;;;;;;;;;;;37.58;33.51;99805.47;5011871;28;799;-57
2023/07/12 14:16:23;;;;;;;;;;;;;;;36.91;34.32;99808.38;5012068;28;811;-57
2023/07/12 14:18:50;;;;;;;;;;;;;;;36.46;35.37;99799.47;5011827;28;928;-57
2023/07/12 14:21:20;;;;;;;;;;;;;;;36.22;35.39;99794.47;5011643;28;1890;-58
2023/07/12 14:23:49;;;;;;;;;;;;;;;35.83;36.01;99793.84;5011885;28;870;-58
2023/07/12 14:26:17;;;;;;;;;;;;;;;35.40;36.79;99807.94;5011807;28;888;-57
2023/07/12 14:28:50;;;;;;;;;;;;;;;35.29;37.10;99802.59;5011801;28;838;-57
2023/07/12 14:31:20;;;;;;;;;;;;;;;35.29;36.98;99802.59;4994571;28;840;-58
2023/07/12 14:33:49;;;;;;;;;;;;;;;35.11;36.97;99802.41;5011680;28;878;-57
2023/07/12 14:36:18;;;;;;;;;;;;;;;35.08;37.31;99802.78;5011601;28;854;-58
2023/07/12 14:38:46;;;;;;;;;;;;;;;35.10;36.88;99800.09;5011618;28;874;-57
2023/07/12 14:41:21;;;;;;;;;;;;;;;35.10;37.14;99795.13;5011469;28;1890;-57
2023/07/12 14:43:48;;;;;;;;;;;;;;;35.16;36.95;99794.94;5011792;28;842;-58
2023/07/12 14:46:16;;;;;;;;;;;;;;;35.16;36.97;99787.13;5011947;28;934;-57
2023/07/12 14:48:44;;;;;;;;;;;;;;;35.21;36.74;99784.59;5011285;28;1304;-58
2023/07/12 14:51:23;;;;;;;;;;;;;;;35.34;36.48;99787.28;5011475;28;870;-57
2023/07/12 14:53:50;;;;;;;;;;;;;;;35.49;36.44;99787.22;5011488;28;823;-57
2023/07/12 14:56:18;;;;;;;;;;;;;;;35.86;36.31;99784.81;5011697;28;858;-57
2023/07/12 14:58:45;;;;;;;;;;;;;;;36.25;35.45;99785.41;5015204;28;813;-57
2023/07/12 15:01:23;;;;;;;;;;;;;;;36.34;35.07;99775.41;5014850;28;1914;-57
2023/07/12 15:03:53;;;;;;;;;;;;;;;36.29;34.90;99785.75;5014881;28;851;-57
2023/07/12 15:06:21;;;;;;;;;;;;;;;36.23;35.16;99782.34;5014989;28;913;-57
2023/07/12 15:08:47;;;;;;;;;;;;;;;35.92;35.57;99787.47;5014868;28;890;-57
2023/07/12 15:11:16;;;;;;;;;;;;;;;35.62;36.06;99785.47;5014703;28;863;-57
2023/07/12 15:13:45;;;;;;;;;;;;;;;35.27;36.60;99794.56;5014604;28;858;-57
2023/07/12 15:16:13;;;;;;;;;;;;;;;34.90;37.76;99793.22;5014971;28;999;-57
2023/07/12 15:18:41;;;;;;;;;;;;;;;34.70;38.18;99784.22;5014608;28;894;-57
2023/07/12 15:21:26;;;;;;;;;;;;;;;34.76;38.20;99786.91;5014698;28;1890;-57
2023/07/12 15:23:53;;;;;;;;;;;;;;;34.73;37.78;99785.94;5014535;28;853;-57
2023/07/12 15:26:20;;;;;;;;;;;;;;;34.67;37.94;99785.34;5014448;28;791;-57
2023/07/12 15:28:47;;;;;;;;;;;;;;;34.54;38.24;99785.50;5014397;28;799;-58
2023/07/12 15:31:26;;;;;;;;;;;;;;;34.32;38.93;99781.28;5014355;28;885;-57
2023/07/12 15:33:52;;;;;;;;;;;;;;;34.07;39.19;99790.34;5014357;28;833;-57
2023/07/12 15:36:21;;;;;;;;;;;;;;;33.87;39.89;99794.88;5014231;28;839;-57
2023/07/12 15:38:50;;;;;;;;;;;;;;;33.72;40.14;99791.94;5014280;28;870;-57
2023/07/12 15:41:21;;;;;;;;;;;;;;;33.32;41.15;99780.81;5014182;28;1947;-57
2023/07/12 15:43:50;;;;;;;;;;;;;;;32.78;41.95;99786.13;5014179;28;819;-57
2023/07/12 15:46:18;;;;;;;;;;;;;;;32.41;43.34;99778.69;5013969;28;901;-58
2023/07/12 15:48:45;;;;;;;;;;;;;;;32.20;43.65;99784.38;5013959;28;1396;-57
2023/07/12 15:51:15;;;;;;;;;;;;;;;31.99;44.64;99785.09;5014069;28;856;-57
2023/07/12 15:53:43;;;;;;;;;;;;;;;31.96;45.43;99789.03;5013981;28;805;-57
2023/07/12 15:56:16;;;;;;;;;;;;;;;31.92;45.03;99780.00;5013986;28;870;-57
2023/07/12 15:58:50;;;;;;;;;;;;;;;32.30;44.99;99785.44;5014068;28;831;-56
2023/07/12 16:01:23;;;;;;;;;;;;;;;32.30;44.61;99791.16;5013707;28;1910;-57
2023/07/12 16:03:51;;;;;;;;;;;;;;;32.35;44.21;99784.56;5013783;28;816;-57
2023/07/12 16:06:20;;;;;;;;;;;;;;;32.22;44.71;99785.38;5013782;28;839;-57
2023/07/12 16:08:49;;;;;;;;;;;;;;;31.73;45.36;99785.91;5013137;28;1276;-57
2023/07/12 16:11:20;;;;;;;;;;;;;;;31.04;46.89;99762.78;5013838;28;851;-56
2023/07/12 16:13:48;;;;;;;;;;;;;;;30.83;47.97;99785.47;5013629;28;932;-57
2023/07/12 16:16:16;;;;;;;;;;;;;;;30.52;48.54;99784.94;5013531;28;850;-57
2023/07/12 16:18:44;;;;;;;;;;;;;;;30.20;49.26;99782.03;5013453;28;898;-57
2023/07/12 16:21:16;;;;;;;;;;;;;;;29.92;50.33;99783.19;5013455;28;1886;-57